Time;durP1;ratioP1;P1;durP2;ratioP2;P2;SDS_P1;SDS_P2;PMS_P1;PMS_P2;Temp;Humidity;BMP_temperature;BMP_pressure;BME280_temperature;BME280_humidity;BME280_pressure;Samples;Min_cycle;Max_cycle;Signal;HPM_P1;HPM_P2
2022/07/21 00:00:23;;;;;;;5.75;3.63;;;;;;;26.47;34.72;100796.38;7399675;19;20462;-73
2022/07/21 00:02:51;;;;;;;6.50;4.05;;;;;;;26.42;35.05;100795.09;7397185;19;20018;-73
2022/07/21 00:05:21;;;;;;;5.07;3.88;;;;;;;26.38;35.29;100791.81;7396695;19;20070;-73
2022/07/21 00:07:49;;;;;;;6.80;3.92;;;;;;;26.33;35.13;100786.84;7396616;19;20477;-73
2022/07/21 00:10:24;;;;;;;5.97;3.70;;;;;;;26.29;35.29;100781.88;7399343;19;20019;-73
2022/07/21 00:12:52;;;;;;;6.60;3.70;;;;;;;26.24;35.04;100784.97;7399066;19;20485;-73
2022/07/21 00:15:23;;;;;;;4.68;3.72;;;;;;;26.20;35.05;100785.38;7399259;19;20019;-73
2022/07/21 00:17:51;;;;;;;6.95;3.65;;;;;;;26.16;35.29;100782.97;7398083;19;20022;-73
2022/07/21 00:20:21;;;;;;;8.45;4.20;;;;;;;26.14;35.12;100778.69;7397451;19;20022;-73
2022/07/21 00:22:56;;;;;;;8.63;4.25;;;;;;;26.10;35.19;100785.34;7398485;19;20035;-73
2022/07/21 00:25:29;;;;;;;5.13;3.67;;;;;;;26.08;35.42;100779.22;7398433;19;20074;-73
2022/07/21 00:27:57;;;;;;;4.13;3.73;;;;;;;26.05;35.13;100787.56;7397196;19;20011;-73
2022/07/21 00:30:26;;;;;;;7.97;4.38;;;;;;;26.02;35.52;100788.63;7396221;19;20438;-73
2022/07/21 00:32:54;;;;;;;7.18;3.88;;;;;;;26.00;35.81;100796.00;7398164;19;20014;-73
2022/07/21 00:35:23;;;;;;;4.95;3.75;;;;;;;25.95;35.45;100791.00;7398011;19;20040;-73
2022/07/21 00:37:52;;;;;;;4.95;3.75;;;;;;;25.93;35.74;100795.69;7396817;19;20085;-73
2022/07/21 00:40:20;;;;;;;6.57;3.63;;;;;;;25.91;35.92;100788.72;7395701;19;20371;-73
2022/07/21 00:42:51;;;;;;;5.65;4.30;;;;;;;25.89;35.52;100793.38;7397964;19;20035;-73
2022/07/21 00:45:20;;;;;;;6.63;4.00;;;;;;;25.84;35.91;100791.97;7396451;19;20112;-73
2022/07/21 00:47:48;;;;;;;4.57;3.85;;;;;;;25.84;35.91;100794.66;7395917;19;20032;-73
2022/07/21 00:50:19;;;;;;;5.38;3.78;;;;;;;25.79;35.78;100788.81;7397481;19;20481;-73
2022/07/21 00:52:49;;;;;;;6.18;4.03;;;;;;;25.76;36.23;100786.38;7397231;19;20014;-73
2022/07/21 00:55:20;;;;;;;6.80;3.75;;;;;;;25.73;36.00;100769.66;7397363;19;20506;-73
2022/07/21 00:57:51;;;;;;;5.70;3.70;;;;;;;25.69;36.14;100766.38;7395341;19;20423;-74
2022/07/21 01:00:22;;;;;;;7.40;3.97;;;;;;;25.66;36.17;100755.91;7397973;19;20011;-73
2022/07/21 01:02:51;;;;;;;7.53;3.63;;;;;;;25.61;36.57;100763.50;7395569;19;20036;-73
2022/07/21 01:05:21;;;;;;;6.25;3.75;;;;;;;25.57;36.67;100760.22;7397412;19;20022;-68
2022/07/21 01:07:53;;;;;;;5.82;4.00;;;;;;;25.56;36.26;100760.38;7396471;19;20038;-67
2022/07/21 01:10:24;;;;;;;5.65;3.53;;;;;;;25.55;36.31;100774.78;7395111;19;20082;-66
2022/07/21 01:12:55;;;;;;;7.53;4.60;;;;;;;25.53;36.62;100774.91;7395780;19;20015;-67
2022/07/21 01:15:25;;;;;;;7.70;3.72;;;;;;;25.51;36.68;100769.66;7396713;19;20010;-67
2022/07/21 01:17:54;;;;;;;4.78;3.60;;;;;;;25.50;36.86;100761.72;7395689;19;20495;-67
2022/07/21 01:20:24;;;;;;;7.65;3.80;;;;;;;25.48;36.87;100758.34;7395104;19;20024;-67
2022/07/21 01:22:58;;;;;;;6.75;3.30;;;;;;;25.46;36.91;100758.44;7395142;19;20023;-67
2022/07/21 01:25:26;;;;;;;6.18;3.63;;;;;;;25.42;36.91;100764.22;7396511;19;20358;-67
2022/07/21 01:27:55;;;;;;;10.15;4.85;;;;;;;25.35;36.81;100751.28;7394279;19;20031;-67
2022/07/21 01:30:24;;;;;;;11.65;4.03;;;;;;;25.35;36.91;100750.41;7396266;19;20104;-67
2022/07/21 01:32:53;;;;;;;6.40;3.60;;;;;;;25.33;37.19;100749.72;7394373;19;20489;-67
2022/07/21 01:35:21;;;;;;;6.53;3.80;;;;;;;25.30;37.11;100749.94;7396426;19;20039;-67
2022/07/21 01:37:50;;;;;;;6.32;3.80;;;;;;;25.29;36.92;100762.53;7395561;19;20027;-70
2022/07/21 01:43:02;;;;;;;;;;;;;;;25.28;37.29;100758.16;7397147;19;20015;-67
2022/07/21 01:45:31;;;;;;;8.00;3.72;;;;;;;25.28;37.39;100754.63;7396159;19;19932;-68
2022/07/21 01:48:00;;;;;;;7.20;3.85;;;;;;;25.29;37.50;100761.69;7392494;19;20022;-67
2022/07/21 01:50:29;;;;;;;5.85;3.25;;;;;;;25.31;37.45;100762.41;7394345;19;20031;-68
2022/07/21 01:52:58;;;;;;;3.72;3.30;;;;;;;25.31;37.43;100760.59;7394309;19;20031;-71
2022/07/21 01:55:31;;;;;;;6.97;3.45;;;;;;;25.34;37.26;100759.47;7396007;19;20104;-71
2022/07/21 01:57:59;;;;;;;9.00;4.00;;;;;;;25.36;36.58;100765.59;7395961;19;20098;-69
2022/07/21 02:00:28;;;;;;;7.88;3.10;;;;;;;25.42;37.07;100785.72;7395626;19;20017;-68
2022/07/21 02:02:56;;;;;;;3.85;2.80;;;;;;;25.45;36.82;100774.69;7394040;19;20031;-68
2022/07/21 02:05:25;;;;;;;4.75;2.72;;;;;;;25.49;36.36;100773.44;7393975;19;20104;-67
2022/07/21 02:07:54;;;;;;;5.45;3.08;;;;;;;25.52;36.49;100787.47;7394624;19;20015;-68
2022/07/21 02:10:22;;;;;;;5.43;2.60;;;;;;;25.57;36.27;100762.09;7393801;19;20039;-68
2022/07/21 02:12:53;;;;;;;4.00;2.78;;;;;;;25.60;36.33;100777.91;7395536;19;20377;-67
2022/07/21 02:15:22;;;;;;;4.82;2.97;;;;;;;25.69;35.98;100766.38;7395575;19;20015;-68
2022/07/21 02:17:51;;;;;;;5.35;3.00;;;;;;;25.75;35.81;100752.41;7394387;19;20090;-69
2022/07/21 02:20:19;;;;;;;4.88;2.45;;;;;;;25.82;35.94;100756.28;7396703;19;20037;-68
2022/07/21 02:22:48;;;;;;;8.13;3.38;;;;;;;25.88;35.62;100771.03;7395743;19;20007;-68
2022/07/21 02:25:16;;;;;;;3.70;2.90;;;;;;;25.94;35.76;100753.53;7393201;19;20022;-68
2022/07/21 02:27:46;;;;;;;6.35;3.20;;;;;;;25.97;35.22;100750.56;7394073;19;20025;-69
2022/07/21 02:30:17;;;;;;;4.13;3.00;;;;;;;26.00;35.46;100758.38;7393633;19;20098;-69
2022/07/21 02:32:45;;;;;;;11.27;3.67;;;;;;;26.02;35.65;100764.44;7395189;19;20086;-69
2022/07/21 02:35:14;;;;;;;6.75;3.05;;;;;;;26.02;35.71;100757.25;7394221;19;20439;-69
2022/07/21 02:37:42;;;;;;;9.55;3.58;;;;;;;26.03;35.81;100758.09;7392161;19;20473;-68
2022/07/21 02:40:12;;;;;;;4.82;2.78;;;;;;;26.02;35.43;100768.00;7392790;19;20022;-68
2022/07/21 02:42:41;;;;;;;6.63;3.42;;;;;;;26.02;35.65;100764.44;7392751;19;20032;-69
2022/07/21 02:45:11;;;;;;;4.80;3.25;;;;;;;26.00;36.10;100756.53;7393016;19;20022;-69
2022/07/21 02:47:59;;;;;;;4.47;2.78;;;;;;;25.98;36.35;100763.00;7395155;19;20082;-68
2022/07/21 02:50:31;;;;;;;12.07;3.83;;;;;;;25.94;35.93;100767.81;7392789;19;20015;-69
2022/07/21 02:53:02;;;;;;;6.40;3.58;;;;;;;25.92;36.45;100763.53;7392022;19;20506;-69
2022/07/21 02:55:31;;;;;;;8.35;3.92;;;;;;;25.88;36.10;100775.56;7392582;19;20015;-68
2022/07/21 02:58:10;;;;;;;4.43;3.83;;;;;;;25.84;36.94;100770.47;7392691;19;20026;-68
2022/07/21 03:00:42;;;;;;;7.68;4.22;;;;;;;25.81;36.89;100780.63;7397697;19;20108;-68
2022/07/21 03:03:13;;;;;;;6.55;3.75;;;;;;;25.77;37.44;100776.47;7401901;19;20031;-68
2022/07/21 03:05:42;;;;;;;5.57;4.28;;;;;;;25.72;37.29;100787.63;7398294;19;20364;-68
2022/07/21 03:08:12;;;;;;;9.60;4.80;;;;;;;25.68;37.83;100796.94;7398475;19;20074;-68
2022/07/21 03:10:41;;;;;;;11.88;5.50;;;;;;;25.65;38.10;100799.88;7400997;19;20493;-68
2022/07/21 03:13:10;;;;;;;8.75;4.15;;;;;;;25.61;38.21;100795.75;7401003;19;20521;-68
2022/07/21 03:15:39;;;;;;;8.07;4.85;;;;;;;25.55;38.29;100790.91;7401321;19;20023;-69
2022/07/21 03:18:08;;;;;;;10.02;5.38;;;;;;;25.48;38.94;100791.41;7399502;19;20018;-68
2022/07/21 03:20:41;;;;;;;7.45;5.00;;;;;;;25.43;39.66;100809.75;7400427;19;20506;-68
2022/07/21 03:23:10;;;;;;;11.18;6.05;;;;;;;25.35;39.83;100807.69;7400662;19;20485;-68
2022/07/21 03:25:39;;;;;;;12.98;6.78;;;;;;;25.29;40.05;100799.28;7398497;19;20074;-68
2022/07/21 03:28:07;;;;;;;11.25;6.10;;;;;;;25.22;40.58;100806.97;7398491;19;20040;-68
2022/07/21 03:30:37;;;;;;;13.43;6.55;;;;;;;25.15;40.57;100809.31;7397448;19;20021;-68
2022/07/21 03:33:05;;;;;;;13.70;7.20;;;;;;;25.08;40.89;100816.16;7397781;19;20019;-68
2022/07/21 03:35:35;;;;;;;8.95;5.47;;;;;;;25.00;40.98;100813.28;7397710;19;20019;-68
2022/07/21 03:38:07;;;;;;;12.32;6.05;;;;;;;24.92;41.51;100824.66;7398884;19;20014;-68
2022/07/21 03:40:38;;;;;;;9.73;6.03;;;;;;;24.83;41.95;100833.41;7397458;19;20018;-68
2022/07/21 03:43:09;;;;;;;8.85;6.07;;;;;;;24.76;41.87;100842.94;7397402;19;20432;-69
2022/07/21 03:45:38;;;;;;;12.05;6.20;;;;;;;24.66;41.98;100838.31;7398547;19;20022;-69
2022/07/21 03:48:10;;;;;;;13.45;6.78;;;;;;;24.61;41.77;100850.38;7397582;19;20022;-69
2022/07/21 03:50:40;;;;;;;10.80;7.53;;;;;;;24.53;41.81;100857.19;7399529;19;20481;-68
2022/07/21 03:53:12;;;;;;;15.32;7.00;;;;;;;24.47;41.95;100868.41;7398673;19;20014;-68
2022/07/21 03:55:40;;;;;;;9.68;8.00;;;;;;;24.40;42.51;100864.47;7398925;19;20437;-67
2022/07/21 03:58:09;;;;;;;12.52;8.50;;;;;;;24.30;41.99;100861.69;7397419;19;20497;-67
2022/07/21 04:00:40;;;;;;;13.30;8.50;;;;;;;24.23;42.38;100863.97;7396540;19;20028;-68
2022/07/21 04:03:09;;;;;;;11.43;8.45;;;;;;;24.17;42.61;100872.47;7397131;19;20019;-68
2022/07/21 04:05:38;;;;;;;13.15;9.05;;;;;;;24.14;42.38;100869.19;7396280;19;20019;-68
2022/07/21 04:08:13;;;;;;;10.60;8.45;;;;;;;24.10;42.71;100873.09;7397460;19;20018;-68
2022/07/21 04:10:43;;;;;;;10.93;9.30;;;;;;;24.04;42.32;100883.31;7395973;19;20034;-68
2022/07/21 04:13:13;;;;;;;16.33;10.20;;;;;;;24.01;42.77;100878.19;7398513;19;20036;-68
2022/07/21 04:15:42;;;;;;;13.40;10.20;;;;;;;23.97;42.56;100897.28;7396643;19;20416;-68
2022/07/21 04:18:11;;;;;;;16.35;10.70;;;;;;;23.95;42.74;100901.91;7397386;19;20035;-67
2022/07/21 04:20:40;;;;;;;16.30;11.00;;;;;;;23.90;42.62;100911.13;7396238;19;20032;-67
2022/07/21 04:23:11;;;;;;;17.77;12.20;;;;;;;23.85;42.94;100907.94;7395873;19;20040;-67
2022/07/21 04:25:39;;;;;;;15.70;11.18;;;;;;;23.80;42.34;100910.09;7396560;19;20082;-67
2022/07/21 04:28:08;;;;;;;15.60;11.23;;;;;;;23.75;42.72;100918.47;7395154;19;20413;-67
2022/07/21 04:30:37;;;;;;;15.15;11.65;;;;;;;23.72;42.48;100923.22;7395803;19;20022;-69
2022/07/21 04:33:06;;;;;;;14.65;11.85;;;;;;;23.72;42.38;100915.16;7398084;19;20019;-66
2022/07/21 04:35:35;;;;;;;13.25;11.55;;;;;;;23.71;42.23;100929.56;7397531;19;20499;-67
2022/07/21 04:38:04;;;;;;;16.83;12.07;;;;;;;23.68;42.72;100921.72;7396614;19;20045;-67
2022/07/21 04:40:35;;;;;;;15.57;11.82;;;;;;;23.69;43.14;100931.47;7398013;19;20014;-68
2022/07/21 04:43:03;;;;;;;14.07;11.77;;;;;;;23.69;42.75;100928.81;7397752;19;20035;-68
2022/07/21 04:45:32;;;;;;;13.13;10.95;;;;;;;23.69;42.96;100934.16;7396063;19;20064;-68
2022/07/21 04:48:00;;;;;;;14.55;11.55;;;;;;;23.68;43.08;100952.06;7395736;19;20035;-67
2022/07/21 04:50:31;;;;;;;13.43;11.85;;;;;;;23.68;43.24;100954.75;7397742;19;20031;-68
2022/07/21 04:53:01;;;;;;;14.50;11.25;;;;;;;23.68;42.67;100949.38;7397802;19;20030;-67
2022/07/21 04:55:29;;;;;;;15.98;12.35;;;;;;;23.67;42.84;100946.81;7397006;19;20474;-68
2022/07/21 04:58:01;;;;;;;16.23;12.35;;;;;;;23.67;43.10;100953.03;7396001;19;20086;-68
2022/07/21 05:00:30;;;;;;;12.85;11.45;;;;;;;23.66;42.88;100954.00;7396114;19;20074;-68
2022/07/21 05:02:59;;;;;;;15.30;12.23;;;;;;;23.65;43.10;100964.81;7396795;19;20031;-68
2022/07/21 05:05:27;;;;;;;16.67;12.00;;;;;;;23.64;43.29;100960.44;7395626;19;20023;-67
2022/07/21 05:07:56;;;;;;;13.00;11.43;;;;;;;23.63;42.83;100970.28;7395183;19;20074;-67
2022/07/21 05:10:24;;;;;;;15.88;11.40;;;;;;;23.63;43.44;100962.25;7396460;19;20014;-67
2022/07/21 05:12:53;;;;;;;14.05;11.80;;;;;;;23.63;43.42;100974.78;7394802;19;20023;-68
2022/07/21 05:15:24;;;;;;;13.02;11.43;;;;;;;23.61;43.61;100976.72;7396190;19;20014;-67
2022/07/21 05:17:52;;;;;;;14.02;11.43;;;;;;;23.61;42.98;100974.03;7395922;19;20019;-68
2022/07/21 05:20:42;;;;;;;13.18;10.90;;;;;;;23.59;43.03;100971.47;7396200;19;20018;-67
2022/07/21 05:23:11;;;;;;;12.27;10.52;;;;;;;23.58;43.53;100989.38;7391810;19;20014;-68
2022/07/21 05:25:39;;;;;;;15.40;11.23;;;;;;;23.56;43.16;100991.28;7395067;19;20014;-68
2022/07/21 05:28:15;;;;;;;11.98;10.05;;;;;;;23.56;43.42;100987.78;7395272;19;20031;-68
2022/07/21 05:30:52;;;;;;;14.30;11.25;;;;;;;23.55;43.58;100988.75;7395074;19;20076;-68
2022/07/21 05:33:21;;;;;;;13.18;11.60;;;;;;;23.57;43.85;100981.47;7395747;19;20083;-68
2022/07/21 05:35:50;;;;;;;16.23;10.95;;;;;;;23.59;43.64;100980.38;7394022;19;20035;-68
2022/07/21 05:38:18;;;;;;;13.15;9.70;;;;;;;23.61;43.51;100979.38;7393589;19;20018;-67
2022/07/21 05:40:47;;;;;;;11.48;9.88;;;;;;;23.63;43.42;100974.78;7395391;19;20018;-67
2022/07/21 05:43:15;;;;;;;11.95;10.70;;;;;;;23.63;43.85;100975.63;7395671;19;20502;-67
2022/07/21 05:45:44;;;;;;;12.90;10.65;;;;;;;23.67;43.54;100976.25;7393774;19;20074;-67
2022/07/21 05:48:15;;;;;;;13.15;10.65;;;;;;;23.70;44.27;100976.06;7394048;19;20018;-67
2022/07/21 05:50:43;;;;;;;14.05;10.43;;;;;;;23.73;43.49;100991.88;7396057;19;20018;-67
2022/07/21 05:53:12;;;;;;;12.48;10.02;;;;;;;23.78;44.03;101004.94;7395688;19;20018;-68
2022/07/21 05:55:40;;;;;;;17.38;10.05;;;;;;;23.80;43.67;100997.66;7395643;19;20018;-68
2022/07/21 05:58:09;;;;;;;15.48;10.30;;;;;;;23.78;44.35;100997.75;7393995;19;20094;-67
2022/07/21 06:00:37;;;;;;;13.38;9.52;;;;;;;23.77;44.14;100996.06;7395524;19;20046;-67
2022/07/21 06:03:06;;;;;;;11.18;9.05;;;;;;;23.74;44.17;100994.44;7392881;19;20502;-68
2022/07/21 06:05:37;;;;;;;12.38;9.65;;;;;;;23.74;44.53;100996.28;7393824;19;20546;-68
2022/07/21 06:08:06;;;;;;;10.98;9.80;;;;;;;23.74;44.46;101009.66;7394115;19;20022;-67
2022/07/21 06:10:35;;;;;;;12.32;9.23;;;;;;;23.76;44.33;101005.06;7392634;19;20022;-67
2022/07/21 06:13:03;;;;;;;11.02;9.20;;;;;;;23.78;44.39;101019.19;7394822;19;20022;-67
2022/07/21 06:15:32;;;;;;;14.95;10.20;;;;;;;23.80;44.57;101011.91;7395044;19;20111;-67
2022/07/21 06:18:00;;;;;;;14.80;9.48;;;;;;;23.84;44.72;101016.06;7393065;19;20091;-67
2022/07/21 06:20:29;;;;;;;11.48;9.80;;;;;;;23.89;45.16;101021.09;7393966;19;20010;-67
2022/07/21 06:23:00;;;;;;;10.88;8.98;;;;;;;23.94;44.80;101027.00;7394447;19;20027;-67
2022/07/21 06:25:28;;;;;;;14.85;9.82;;;;;;;23.97;44.89;101018.72;7391756;19;20031;-68
2022/07/21 06:27:57;;;;;;;11.88;9.45;;;;;;;24.02;45.09;101010.34;7392516;19;20023;-67
2022/07/21 06:30:25;;;;;;;10.65;9.15;;;;;;;24.08;44.77;101020.59;7392153;19;20541;-68
2022/07/21 06:32:54;;;;;;;15.68;11.23;;;;;;;24.11;44.91;101020.38;7394522;19;20015;-68
2022/07/21 06:35:22;;;;;;;17.33;9.70;;;;;;;24.17;44.65;101019.06;7398694;19;20078;-67
2022/07/21 06:37:51;;;;;;;10.63;8.40;;;;;;;24.22;44.82;101015.06;7398287;19;20019;-68
2022/07/21 06:40:22;;;;;;;13.30;9.30;;;;;;;24.28;45.05;101016.44;7401611;19;20074;-67
2022/07/21 06:42:51;;;;;;;14.50;11.88;;;;;;;24.34;44.54;101009.72;7401319;19;20167;-67
2022/07/21 06:45:19;;;;;;;14.68;10.45;;;;;;;24.40;44.54;101025.34;7400709;19;20018;-68
2022/07/21 06:47:48;;;;;;;10.73;9.38;;;;;;;24.46;44.87;101016.00;7399035;19;20015;-68
2022/07/21 06:50:16;;;;;;;11.82;9.13;;;;;;;24.49;44.69;101030.03;7402491;19;20031;-68
2022/07/21 06:52:45;;;;;;;9.68;8.68;;;;;;;24.55;44.59;101045.66;7401810;19;20085;-68
2022/07/21 06:55:13;;;;;;;11.55;9.35;;;;;;;24.60;44.60;101039.09;7401520;19;20081;-68
2022/07/21 06:57:45;;;;;;;10.00;9.00;;;;;;;24.68;44.59;101039.38;7398147;19;20485;-67
2022/07/21 07:00:15;;;;;;;11.52;9.52;;;;;;;24.76;44.35;101044.13;7401635;19;20022;-70
2022/07/21 07:02:43;;;;;;;13.90;9.13;;;;;;;24.83;44.53;101051.63;7401411;19;20379;-68
2022/07/21 07:05:11;;;;;;;12.70;8.88;;;;;;;24.89;44.00;101045.75;7397969;19;20481;-68
2022/07/21 07:07:40;;;;;;;9.10;8.18;;;;;;;24.99;44.06;101053.09;7399714;19;20039;-68
2022/07/21 07:10:10;;;;;;;11.93;8.07;;;;;;;25.08;44.06;101064.97;7398160;19;20023;-68
2022/07/21 07:12:38;;;;;;;12.75;7.80;;;;;;;25.17;43.49;101053.47;7400637;19;20387;-68
2022/07/21 07:15:11;;;;;;;8.98;8.07;;;;;;;25.23;43.57;101049.47;7400314;19;20090;-67
2022/07/21 07:17:40;;;;;;;12.93;8.05;;;;;;;25.30;43.79;101054.22;7399635;19;20035;-68
2022/07/21 07:20:10;;;;;;;12.23;8.63;;;;;;;25.36;43.43;101058.28;7397724;19;20018;-68
2022/07/21 07:22:39;;;;;;;11.45;8.13;;;;;;;25.44;42.88;101065.72;7400351;19;20399;-67
2022/07/21 07:25:09;;;;;;;9.25;7.55;;;;;;;25.49;43.27;101072.44;7397256;19;20018;-67
2022/07/21 07:27:38;;;;;;;9.43;7.65;;;;;;;25.57;42.98;101071.84;7397485;19;20439;-68
2022/07/21 07:30:11;;;;;;;9.35;7.00;;;;;;;25.66;42.71;101067.56;7397840;19;20014;-68
2022/07/21 07:32:40;;;;;;;10.80;7.35;;;;;;;25.78;42.28;101063.88;7399425;19;20022;-66
2022/07/21 07:35:09;;;;;;;7.63;6.80;;;;;;;25.88;42.32;101066.66;7399516;19;20027;-67
2022/07/21 07:37:39;;;;;;;8.55;7.30;;;;;;;26.01;41.87;101069.22;7398067;19;20032;-68
2022/07/21 07:40:10;;;;;;;8.05;6.63;;;;;;;26.10;41.43;101063.09;7396940;19;20078;-68
2022/07/21 07:42:40;;;;;;;10.25;7.35;;;;;;;26.25;41.45;101052.91;7399257;19;20078;-68
2022/07/21 07:45:12;;;;;;;8.80;6.72;;;;;;;26.37;40.73;101055.53;7396884;19;20031;-68
2022/07/21 07:47:41;;;;;;;10.73;6.77;;;;;;;26.47;40.95;101051.94;7397791;19;20015;-69
2022/07/21 07:50:12;;;;;;;7.28;6.43;;;;;;;26.58;40.53;101051.03;7397124;19;20035;-68
2022/07/21 07:52:42;;;;;;;13.23;6.82;;;;;;;26.71;40.96;101050.84;7399153;19;20010;-68
2022/07/21 07:55:12;;;;;;;9.02;6.57;;;;;;;26.83;40.36;101063.28;7398936;19;20457;-68
2022/07/21 07:57:42;;;;;;;8.95;6.78;;;;;;;26.91;40.04;101069.84;7398048;19;20474;-68
2022/07/21 08:00:16;;;;;;;9.27;6.93;;;;;;;26.94;39.52;101059.66;7399179;19;20377;-68
2022/07/21 08:02:45;;;;;;;8.35;5.88;;;;;;;27.02;39.78;101056.31;7399468;19;20028;-68
2022/07/21 08:05:14;;;;;;;7.15;6.00;;;;;;;27.11;39.42;101060.88;7398568;19;20384;-70
2022/07/21 08:07:43;;;;;;;9.45;6.68;;;;;;;27.20;39.57;101074.53;7398090;19;20022;-68
2022/07/21 08:10:14;;;;;;;7.85;6.60;;;;;;;27.29;39.45;101079.13;7398776;19;20018;-68
2022/07/21 08:12:43;;;;;;;9.45;6.18;;;;;;;27.35;39.13;101072.31;7399420;19;20025;-68
2022/07/21 08:15:15;;;;;;;7.65;5.90;;;;;;;27.37;39.40;101079.28;7398879;19;20374;-68
2022/07/21 08:17:44;;;;;;;10.50;6.50;;;;;;;27.39;39.23;101082.72;7397207;19;20513;-68
2022/07/21 08:20:13;;;;;;;10.30;6.35;;;;;;;27.38;39.55;101078.28;7396318;19;20022;-68
2022/07/21 08:22:42;;;;;;;8.13;6.80;;;;;;;27.37;39.56;101083.81;7398288;19;20082;-69
2022/07/21 08:25:11;;;;;;;10.93;6.47;;;;;;;27.32;39.28;101089.59;7398507;19;20023;-68
2022/07/21 08:27:41;;;;;;;6.70;6.00;;;;;;;27.30;39.48;101080.81;7395782;19;20022;-68
2022/07/21 08:30:20;;;;;;;10.02;6.32;;;;;;;27.28;39.52;101074.72;7395883;19;20014;-68
2022/07/21 08:32:55;;;;;;;10.65;6.32;;;;;;;27.34;39.55;101070.63;7398239;19;20014;-68
2022/07/21 08:35:23;;;;;;;9.75;6.85;;;;;;;27.41;39.34;101082.59;7397300;19;20022;-68
2022/07/21 08:37:57;;;;;;;9.45;6.78;;;;;;;27.43;39.73;101070.69;7395452;19;20022;-69
2022/07/21 08:40:26;;;;;;;;;;;;;;;27.47;39.60;101068.59;7398255;19;20485;-68
2022/07/21 08:42:55;;;;;;;9.30;6.43;;;;;;;27.50;39.17;101068.31;7397170;19;19971;-67
2022/07/21 08:45:27;;;;;;;7.55;6.68;;;;;;;27.53;39.59;101068.03;7395203;19;20484;-67
2022/07/21 08:47:57;;;;;;;11.10;7.18;;;;;;;27.57;38.99;101074.00;7395298;19;20520;-67
2022/07/21 08:50:28;;;;;;;7.60;6.75;;;;;;;27.60;39.31;101069.22;7397868;19;20050;-68
2022/07/21 08:52:57;;;;;;;8.57;6.18;;;;;;;27.66;39.50;101064.25;7398386;19;20038;-68
2022/07/21 08:55:26;;;;;;;8.82;6.15;;;;;;;27.69;39.19;101064.84;7397816;19;20014;-67
2022/07/21 08:57:55;;;;;;;6.13;5.30;;;;;;;27.74;38.69;101073.38;7396137;19;20018;-67
2022/07/21 09:00:23;;;;;;;6.60;5.90;;;;;;;27.76;38.54;101065.97;7395381;19;20019;-68
2022/07/21 09:03:11;;;;;;;7.55;5.40;;;;;;;27.75;38.15;101058.03;7397651;19;20022;-68
2022/07/21 09:05:40;;;;;;;6.70;5.40;;;;;;;27.75;38.43;101056.22;7395817;19;20122;-68
2022/07/21 09:08:08;;;;;;;9.20;5.38;;;;;;;27.79;38.36;101060.31;7395585;19;20427;-67
2022/07/21 09:10:38;;;;;;;7.78;4.55;;;;;;;27.84;38.16;101061.75;7396676;19;20023;-67
2022/07/21 09:13:08;;;;;;;6.53;5.72;;;;;;;27.86;37.80;101065.16;7396375;19;20022;-67
2022/07/21 09:15:39;;;;;;;8.48;5.68;;;;;;;27.87;38.16;101069.56;7394398;19;20015;-67
2022/07/21 09:18:12;;;;;;;6.57;4.72;;;;;;;27.91;37.69;101058.34;7394386;19;20022;-68
2022/07/21 09:20:48;;;;;;;6.72;4.80;;;;;;;28.02;38.00;101065.47;7396348;19;20519;-68
2022/07/21 09:23:19;;;;;;;6.93;4.60;;;;;;;28.15;37.69;101064.38;7394948;19;20018;-68
2022/07/21 09:25:50;;;;;;;7.15;4.75;;;;;;;28.27;36.79;101056.00;7396028;19;20419;-68
2022/07/21 09:28:20;;;;;;;5.97;4.45;;;;;;;28.38;36.94;101081.97;7394386;19;20018;-67
2022/07/21 09:31:01;;;;;;;6.25;4.50;;;;;;;28.44;36.35;101073.31;7394517;19;20027;-68
2022/07/21 09:33:34;;;;;;;6.00;4.22;;;;;;;28.52;36.11;101077.16;7395526;19;20025;-68
2022/07/21 09:36:08;;;;;;;7.22;4.95;;;;;;;28.55;35.82;101085.81;7393227;19;20370;-68
2022/07/21 09:38:38;;;;;;;5.72;4.78;;;;;;;28.59;36.38;101083.69;7393222;19;20041;-68
2022/07/21 09:41:13;;;;;;;6.45;4.72;;;;;;;28.64;36.03;101097.63;7393699;19;20106;-67
2022/07/21 09:43:44;;;;;;;7.80;4.60;;;;;;;28.67;36.20;101096.50;7395828;19;20088;-67
2022/07/21 09:46:15;;;;;;;7.80;4.90;;;;;;;28.66;36.53;101103.69;7395558;19;20018;-68
2022/07/21 09:48:53;;;;;;;6.72;4.63;;;;;;;28.65;36.42;101106.56;7393768;19;20026;-68
2022/07/21 09:51:30;;;;;;;6.38;4.60;;;;;;;28.57;36.62;101108.13;7395692;19;20078;-68
2022/07/21 09:54:05;;;;;;;7.10;4.47;;;;;;;28.48;37.14;101105.44;7395485;19;20036;-68
2022/07/21 09:56:36;;;;;;;9.00;4.90;;;;;;;28.43;37.36;101113.94;7394562;19;20035;-68
2022/07/21 09:59:07;;;;;;;6.15;4.00;;;;;;;28.39;37.38;101121.47;7393561;19;20485;-68
2022/07/21 10:01:37;;;;;;;6.60;4.82;;;;;;;28.37;37.27;101126.16;7395085;19;20073;-68
2022/07/21 10:04:09;;;;;;;6.75;4.80;;;;;;;28.33;38.10;101126.59;7395274;19;20015;-68
2022/07/21 10:06:40;;;;;;;8.43;5.53;;;;;;;28.27;37.86;101138.78;7392805;19;20019;-68
2022/07/21 10:09:11;;;;;;;8.63;4.78;;;;;;;28.23;37.69;101145.44;7394091;19;20039;-68
2022/07/21 10:11:42;;;;;;;8.07;4.22;;;;;;;28.21;38.14;101145.59;7393600;19;20039;-68
2022/07/21 10:14:12;;;;;;;6.28;4.72;;;;;;;28.19;37.78;101146.72;7394607;19;20021;-69
2022/07/21 10:16:42;;;;;;;12.98;5.00;;;;;;;28.14;38.15;101140.91;7393337;19;20035;-68
2022/07/21 10:19:21;;;;;;;5.95;4.40;;;;;;;28.10;38.18;101133.06;7394083;19;20561;-67
2022/07/21 10:21:58;;;;;;;5.80;4.25;;;;;;;28.06;38.47;101130.81;7395114;19;20014;-68
2022/07/21 10:24:30;;;;;;;9.20;4.75;;;;;;;28.03;38.85;101126.53;7392790;19;20025;-68
2022/07/21 10:27:04;;;;;;;8.70;4.85;;;;;;;28.01;38.45;101124.94;7393819;19;20018;-68
2022/07/21 10:30:01;;;;;;;4.82;4.40;;;;;;;28.00;39.22;101117.84;7394442;19;20078;-68
2022/07/21 10:32:32;;;;;;;7.45;4.22;;;;;;;28.05;38.86;101116.44;7393502;19;20032;-68
2022/07/21 10:35:25;;;;;;;5.95;4.10;;;;;;;28.09;39.27;101117.03;7394306;19;20019;-68
2022/07/21 10:37:53;;;;;;;4.65;3.92;;;;;;;28.13;38.83;101121.13;7392155;19;20095;-68
2022/07/21 10:40:38;;;;;;;4.45;3.60;;;;;;;28.14;39.42;101122.00;7392155;19;20031;-68
2022/07/21 10:43:41;;;;;;;6.15;3.65;;;;;;;28.12;39.45;101114.06;7394053;19;20050;-68
2022/07/21 10:46:42;;;;;;;6.83;4.27;;;;;;;28.10;40.22;101116.88;7391779;19;20074;-68
2022/07/21 10:49:11;;;;;;;4.75;3.03;;;;;;;28.03;40.83;101123.84;7394840;19;20015;-68
2022/07/21 10:51:43;;;;;;;4.47;2.80;;;;;;;27.99;41.02;101126.91;7392234;19;20035;-68
2022/07/21 10:54:25;;;;;;;3.85;3.20;;;;;;;27.91;41.65;101131.13;7393799;19;20015;-68
2022/07/21 10:57:24;;;;;;;4.85;3.00;;;;;;;27.81;42.78;101143.75;7394150;19;20028;-67
2022/07/21 11:00:22;;;;;;;6.43;3.13;;;;;;;27.77;42.67;101137.75;7392973;19;20022;-68
2022/07/21 11:02:53;;;;;;;5.43;3.72;;;;;;;27.77;42.80;101153.09;7391859;19;20023;-68
2022/07/21 11:05:24;;;;;;;3.35;3.05;;;;;;;27.74;42.64;101158.75;7391601;19;20422;-69
2022/07/21 11:08:21;;;;;;;4.60;3.40;;;;;;;27.61;44.10;101165.25;7391940;19;20070;-69
2022/07/21 11:10:51;;;;;;;8.60;3.47;;;;;;;27.55;43.60;101164.91;7393406;19;20019;-68
2022/07/21 11:13:25;;;;;;;4.88;3.38;;;;;;;27.45;44.66;101173.81;7390209;19;20082;-68
2022/07/21 11:16:02;;;;;;;9.02;4.40;;;;;;;27.26;46.32;101182.59;7392522;19;20394;-68
2022/07/21 11:18:32;;;;;;;7.95;4.32;;;;;;;27.18;45.47;101179.69;7391085;19;20017;-68
2022/07/21 11:21:19;;;;;;;8.30;3.90;;;;;;;26.97;47.36;101175.16;7397092;19;20070;-68
2022/07/21 11:23:52;;;;;;;4.57;3.80;;;;;;;26.88;47.40;101161.63;7399617;19;20091;-68
2022/07/21 11:26:25;;;;;;;6.32;4.55;;;;;;;26.75;47.52;101170.72;7399628;19;20419;-68
2022/07/21 11:29:07;;;;;;;5.20;4.22;;;;;;;26.63;49.84;101166.34;7397596;19;20031;-68
2022/07/21 11:31:48;;;;;;;7.43;4.47;;;;;;;26.53;49.26;101141.16;7397527;19;20372;-68
2022/07/21 11:34:17;;;;;;;6.57;4.20;;;;;;;26.42;50.01;101136.69;7399339;19;20070;-68
2022/07/21 11:36:46;;;;;;;6.05;4.10;;;;;;;26.30;50.30;101147.50;7397913;19;20142;-69
2022/07/21 11:39:19;;;;;;;7.45;4.45;;;;;;;26.17;50.56;101157.53;7399724;19;20086;-68
2022/07/21 11:41:49;;;;;;;5.35;4.30;;;;;;;26.01;50.54;101160.59;7397577;19;20023;-68